createdAt,value
2022-08-08T00:01:17.377Z,69.20
2022-08-08T00:03:53.422Z,68.40
2022-08-08T00:06:36.735Z,67.60
2022-08-08T00:09:15.996Z,69.10
2022-08-08T00:12:09.437Z,70.20
2022-08-08T00:14:59.553Z,72.40
2022-08-08T00:17:58.541Z,72.10
2022-08-08T00:20:45.652Z,71.90
2022-08-08T00:23:43.393Z,72.40
2022-08-08T00:26:29.024Z,70.10
2022-08-08T00:29:08.033Z,68.20
2022-08-08T00:32:16.334Z,68.10
2022-08-08T00:35:05.415Z,67.20
2022-08-08T00:37:47.389Z,69.20
2022-08-08T00:41:14.516Z,71.30
2022-08-08T00:44:04.932Z,73.00
2022-08-08T00:47:19.353Z,71.60
2022-08-08T00:50:21.928Z,72.50
2022-08-08T00:52:58.583Z,68.90
2022-08-08T00:56:11.292Z,71.20
2022-08-08T00:59:44.571Z,70.80
2022-08-08T01:03:58.734Z,70.90
2022-08-08T01:06:16.826Z,69.00
2022-08-08T01:09:35.710Z,69.90
2022-08-08T01:12:52.180Z,74.20
2022-08-08T01:15:47.305Z,74.30
2022-08-08T01:19:13.841Z,72.90
2022-08-08T01:22:35.173Z,68.00
2022-08-08T01:25:40.830Z,68.30
2022-08-08T01:28:36.806Z,69.10
2022-08-08T01:32:13.819Z,68.60
2022-08-08T01:35:11.095Z,68.00
2022-08-08T01:38:11.498Z,68.10
2022-08-08T01:41:00.232Z,68.00
2022-08-08T01:43:40.732Z,67.20
2022-08-08T01:46:43.633Z,71.10
2022-08-08T01:49:43.694Z,70.00
2022-08-08T01:52:43.804Z,74.40
2022-08-08T01:56:29.294Z,74.80
2022-08-08T01:58:38.691Z,75.80
2022-08-08T02:01:20.627Z,75.60
2022-08-08T02:04:04.264Z,75.40
2022-08-08T02:07:01.478Z,74.90
2022-08-08T02:10:02.720Z,71.90
2022-08-08T02:12:52.490Z,77.60
2022-08-08T02:15:34.648Z,77.20
2022-08-08T02:18:11.690Z,76.00
2022-08-08T02:21:13.267Z,74.50
2022-08-08T02:23:46.963Z,73.00
2022-08-08T02:26:25.650Z,73.10
2022-08-08T02:29:21.818Z,71.70
2022-08-08T02:32:07.342Z,72.00
2022-08-08T02:35:07.988Z,71.40
2022-08-08T02:38:09.168Z,70.70
2022-08-08T02:40:48.903Z,70.70
2022-08-08T02:44:35.561Z,69.00
2022-08-08T02:46:50.505Z,68.90
2022-08-08T02:50:02.617Z,69.70
2022-08-08T02:52:50.740Z,68.90
2022-08-08T02:55:59.742Z,68.60
2022-08-08T02:59:02.439Z,67.50
2022-08-08T03:02:04.861Z,67.90
2022-08-08T03:05:19.677Z,69.50
2022-08-08T03:08:30.896Z,76.50
2022-08-08T03:11:59.870Z,74.50
2022-08-08T03:15:57.397Z,75.10
2022-08-08T03:18:00.160Z,74.30
2022-08-08T03:20:51.903Z,73.10
2022-08-08T03:23:30.530Z,72.90
2022-08-08T03:26:09.653Z,72.00
2022-08-08T03:28:44.891Z,70.20
2022-08-08T03:32:05.906Z,70.80
2022-08-08T03:34:27.995Z,73.30
2022-08-08T03:36:56.779Z,71.40
2022-08-08T03:39:27.706Z,69.20
2022-08-08T03:42:27.023Z,69.30
2022-08-08T03:44:47.835Z,69.10
2022-08-08T03:47:23.759Z,70.00
2022-08-08T03:50:00.793Z,70.60
2022-08-08T03:52:44.560Z,70.50
2022-08-08T03:55:56.054Z,70.30
2022-08-08T03:58:35.512Z,70.80
2022-08-08T04:01:23.633Z,75.40
2022-08-08T04:03:59.734Z,75.80
2022-08-08T04:06:37.426Z,74.80
2022-08-08T04:09:11.275Z,74.80
2022-08-08T04:11:58.165Z,74.80
2022-08-08T04:14:37.046Z,77.70
2022-08-08T04:17:15.665Z,77.20
2022-08-08T04:19:52.263Z,76.30
2022-08-08T04:22:24.214Z,75.00
2022-08-08T04:24:58.231Z,75.70
2022-08-08T04:28:01.498Z,75.20
2022-08-08T04:30:19.588Z,75.20
2022-08-08T04:32:53.190Z,75.30
2022-08-08T04:35:34.497Z,74.30
2022-08-08T04:38:10.014Z,72.10
2022-08-08T04:40:53.857Z,72.40
2022-08-08T04:43:25.616Z,72.20
2022-08-08T04:46:02.768Z,71.80
2022-08-08T04:48:32.521Z,72.20
2022-08-08T04:51:01.950Z,71.10
2022-08-08T04:54:27.250Z,71.30
2022-08-08T04:56:23.405Z,70.80
2022-08-08T04:58:53.372Z,76.30
2022-08-08T05:01:22.870Z,79.00
2022-08-08T05:04:11.360Z,78.80
2022-08-08T05:06:45.437Z,79.70
2022-08-08T05:09:15.686Z,78.80
2022-08-08T05:11:47.802Z,78.60
2022-08-08T05:14:29.050Z,77.10
2022-08-08T05:17:01.908Z,76.00
2022-08-08T05:20:09.938Z,75.00
2022-08-08T05:22:32.529Z,73.50
2022-08-08T05:25:02.763Z,73.70
2022-08-08T05:27:33.075Z,70.90
2022-08-08T05:30:04.927Z,67.10
2022-08-08T05:32:43.390Z,68.30
2022-08-08T05:35:15.784Z,68.10
2022-08-08T05:37:52.707Z,71.10
2022-08-08T05:40:28.356Z,70.80
2022-08-08T05:43:38.885Z,70.50
2022-08-08T05:46:02.961Z,68.90
2022-08-08T05:48:37.599Z,69.60
2022-08-08T05:51:14.445Z,69.20
2022-08-08T05:54:24.920Z,66.20
2022-08-08T05:56:48.226Z,66.30
2022-08-08T06:00:01.056Z,66.60
2022-08-08T06:02:38.953Z,66.40
2022-08-08T06:05:34.381Z,65.00
2022-08-08T06:08:03.014Z,65.50
2022-08-08T06:10:43.178Z,64.10
2022-08-08T06:13:15.900Z,64.20
2022-08-08T06:15:55.071Z,63.60
2022-08-08T06:18:39.272Z,62.50
2022-08-08T06:21:27.857Z,62.00
2022-08-08T06:24:04.625Z,61.90
2022-08-08T06:26:50.298Z,61.80
2022-08-08T06:29:56.532Z,62.30
2022-08-08T06:32:27.961Z,62.60
2022-08-08T06:35:30.675Z,62.20
2022-08-08T06:38:01.554Z,61.50
2022-08-08T06:40:36.833Z,60.90
2022-08-08T06:43:19.856Z,59.60
2022-08-08T06:46:00.714Z,59.50
2022-08-08T06:48:31.970Z,59.30
2022-08-08T06:51:08.482Z,58.90
2022-08-08T06:53:50.716Z,59.90
2022-08-08T06:56:26.936Z,59.00
2022-08-08T06:58:56.144Z,59.00
2022-08-08T07:02:27.405Z,59.30
2022-08-08T07:04:40.394Z,59.00
2022-08-08T07:07:22.409Z,59.60
2022-08-08T07:10:00.873Z,58.80
2022-08-08T07:12:43.040Z,58.90
2022-08-08T07:15:32.021Z,59.20
2022-08-08T07:18:35.734Z,58.10
2022-08-08T07:21:05.135Z,58.10
2022-08-08T07:24:01.064Z,57.90
2022-08-08T07:26:37.956Z,58.10
2022-08-08T07:29:20.661Z,57.90
2022-08-08T07:31:59.269Z,57.90
2022-08-08T07:34:32.416Z,58.40
2022-08-08T07:37:12.010Z,58.10
2022-08-08T07:39:57.697Z,58.30
2022-08-08T07:42:34.738Z,57.60
2022-08-08T07:45:09.800Z,57.50
2022-08-08T07:47:42.682Z,57.80
2022-08-08T07:50:23.456Z,58.30
2022-08-08T07:52:57.775Z,58.40
2022-08-08T07:55:36.476Z,57.70
2022-08-08T07:58:17.724Z,58.00
2022-08-08T08:00:52.728Z,57.40
2022-08-08T08:03:41.436Z,57.40
2022-08-08T08:06:16.436Z,57.80
2022-08-08T08:08:52.467Z,57.10
2022-08-08T08:11:34.016Z,57.10
2022-08-08T08:14:30.092Z,57.20
2022-08-08T08:17:00.643Z,56.70
2022-08-08T08:19:45.550Z,56.80
2022-08-08T08:22:16.329Z,56.30
2022-08-08T08:25:07.696Z,56.40
2022-08-08T08:27:46.565Z,57.90
2022-08-08T08:30:16.749Z,56.60
2022-08-08T08:32:51.017Z,56.30
2022-08-08T08:35:29.943Z,56.90
2022-08-08T08:38:15.675Z,57.40
2022-08-08T08:40:48.508Z,56.80
2022-08-08T08:43:26.877Z,56.70
2022-08-08T08:46:03.627Z,55.80
2022-08-08T08:48:36.019Z,57.50
2022-08-08T08:51:06.273Z,56.40
2022-08-08T08:53:56.589Z,56.30
2022-08-08T08:56:30.796Z,55.60
2022-08-08T08:59:15.421Z,56.30
2022-08-08T09:01:52.791Z,56.80
2022-08-08T09:04:31.576Z,57.70
2022-08-08T09:07:13.821Z,56.40
2022-08-08T09:09:57.472Z,55.10
2022-08-08T09:12:35.847Z,55.40
2022-08-08T09:15:08.902Z,54.80
2022-08-08T09:17:55.661Z,54.80
2022-08-08T09:21:59.701Z,54.50
2022-08-08T09:23:25.407Z,54.40
2022-08-08T09:26:03.124Z,53.80
2022-08-08T09:28:40.773Z,52.60
2022-08-08T09:31:28.982Z,52.40
2022-08-08T09:34:31.633Z,53.50
2022-08-08T09:37:46.232Z,53.20
2022-08-08T09:40:01.713Z,53.00
2022-08-08T09:42:44.362Z,53.20
2022-08-08T09:46:01.268Z,52.20
2022-08-08T09:48:21.053Z,52.40
2022-08-08T09:50:56.107Z,51.40
2022-08-08T09:53:59.088Z,52.00
2022-08-08T09:56:25.486Z,50.80
2022-08-08T09:59:19.938Z,50.20
2022-08-08T10:01:59.120Z,49.90
2022-08-08T10:04:39.659Z,49.90
2022-08-08T10:07:15.892Z,52.20
2022-08-08T10:09:59.687Z,50.00
2022-08-08T10:12:53.982Z,51.10
2022-08-08T10:15:29.295Z,52.00
2022-08-08T10:18:09.242Z,52.10
2022-08-08T10:20:57.881Z,52.10
2022-08-08T10:23:45.085Z,51.70
2022-08-08T10:26:29.919Z,51.90
2022-08-08T10:29:05.795Z,51.70
2022-08-08T10:31:54.995Z,51.20
2022-08-08T10:34:27.498Z,51.30
2022-08-08T10:37:00.260Z,50.50
2022-08-08T10:39:43.126Z,50.20
2022-08-08T10:42:27.226Z,50.80
2022-08-08T10:45:02.507Z,51.50
2022-08-08T10:47:43.965Z,52.20
2022-08-08T10:50:17.790Z,52.90
2022-08-08T10:52:47.816Z,51.40
2022-08-08T10:55:41.700Z,51.20
2022-08-08T10:58:09.167Z,50.90
2022-08-08T11:00:52.534Z,50.30
2022-08-08T11:03:36.730Z,48.90
2022-08-08T11:06:14.067Z,48.40
2022-08-08T11:08:50.247Z,48.00
2022-08-08T11:11:32.262Z,47.50
2022-08-08T11:14:16.327Z,46.80
2022-08-08T11:16:47.404Z,46.70
2022-08-08T11:19:18.906Z,47.30
2022-08-08T11:21:54.143Z,48.00
2022-08-08T11:24:29.109Z,47.60
2022-08-08T11:27:10.405Z,46.60
2022-08-08T11:29:58.328Z,46.20
2022-08-08T11:32:41.160Z,47.20
2022-08-08T11:35:29.327Z,47.00
2022-08-08T11:38:35.502Z,46.80
2022-08-08T11:40:53.071Z,46.70
2022-08-08T11:43:23.820Z,46.90
2022-08-08T11:46:09.634Z,47.90
2022-08-08T11:48:47.330Z,46.10
2022-08-08T11:51:39.571Z,46.00
2022-08-08T11:54:27.443Z,45.60
2022-08-08T11:57:16.718Z,45.60
2022-08-08T12:00:01.418Z,46.20
2022-08-08T12:02:51.376Z,46.70
2022-08-08T12:05:22.750Z,46.40
2022-08-08T12:07:54.005Z,46.90
2022-08-08T12:10:26.568Z,46.40
2022-08-08T12:13:05.433Z,48.00
2022-08-08T12:15:41.857Z,47.60
2022-08-08T12:18:18.006Z,46.50
2022-08-08T12:20:50.947Z,46.00
2022-08-08T12:23:43.544Z,45.20
2022-08-08T12:26:28.440Z,45.50
2022-08-08T12:29:21.624Z,46.10
2022-08-08T12:32:02.999Z,46.00
2022-08-08T12:34:39.719Z,46.20
2022-08-08T12:37:12.264Z,45.40
2022-08-08T12:40:00.256Z,46.20
2022-08-08T12:42:33.765Z,46.80
2022-08-08T12:45:59.228Z,46.90
2022-08-08T12:48:10.307Z,46.80
2022-08-08T12:50:49.503Z,47.10
2022-08-08T12:53:24.671Z,47.10
2022-08-08T12:56:17.931Z,47.20
2022-08-08T12:58:51.781Z,47.50
2022-08-08T13:01:29.550Z,48.40
2022-08-08T13:04:18.528Z,49.20
2022-08-08T13:07:02.758Z,49.40
2022-08-08T13:09:43.230Z,52.10
2022-08-08T13:12:32.872Z,51.20
2022-08-08T13:15:03.664Z,50.80
2022-08-08T13:18:09.367Z,50.30
2022-08-08T13:20:27.110Z,50.60
2022-08-08T13:25:48.897Z,50.20
2022-08-08T13:28:32.157Z,50.20
2022-08-08T13:31:04.171Z,50.40
2022-08-08T13:33:42.652Z,51.10
2022-08-08T13:36:12.227Z,52.20
2022-08-08T13:38:42.447Z,54.00
2022-08-08T13:41:15.993Z,57.90
2022-08-08T13:43:50.647Z,60.50
2022-08-08T13:46:26.533Z,62.80
2022-08-08T13:49:11.719Z,64.70
2022-08-08T13:51:55.281Z,64.70
2022-08-08T13:54:29.304Z,65.80
2022-08-08T13:57:13.035Z,64.10
2022-08-08T13:59:47.849Z,61.70
2022-08-08T14:02:21.672Z,61.10
2022-08-08T14:05:04.803Z,59.10
2022-08-08T14:07:42.249Z,59.50
2022-08-08T14:10:17.566Z,59.00
2022-08-08T14:13:06.278Z,58.50
2022-08-08T14:15:46.295Z,56.50
2022-08-08T14:18:34.494Z,55.90
2022-08-08T14:21:15.032Z,55.80
2022-08-08T14:24:07.967Z,56.70
2022-08-08T14:26:43.221Z,57.30
2022-08-08T14:29:28.529Z,56.70
2022-08-08T14:32:09.164Z,56.50
2022-08-08T14:34:42.372Z,57.20
2022-08-08T14:37:17.606Z,57.30
2022-08-08T14:39:53.778Z,58.40
2022-08-08T14:42:32.095Z,57.70
2022-08-08T14:45:03.547Z,59.40
2022-08-08T14:47:44.679Z,61.70
2022-08-08T14:50:38.123Z,63.30
2022-08-08T14:53:14.501Z,62.60
2022-08-08T14:55:43.871Z,61.50
2022-08-08T14:58:16.556Z,60.90
2022-08-08T15:00:49.699Z,61.70
2022-08-08T15:03:18.817Z,62.40
2022-08-08T15:05:54.031Z,62.20
2022-08-08T15:08:35.484Z,62.80
2022-08-08T15:11:11.611Z,61.50
2022-08-08T15:14:00.703Z,60.60
2022-08-08T15:16:34.455Z,60.60
2022-08-08T15:19:05.117Z,60.60
2022-08-08T15:21:33.830Z,60.80
2022-08-08T15:24:13.856Z,59.70
2022-08-08T15:26:52.629Z,59.20
2022-08-08T15:29:24.231Z,59.20
2022-08-08T15:32:17.799Z,59.00
2022-08-08T15:34:42.101Z,59.50
2022-08-08T15:37:12.942Z,60.60
2022-08-08T15:39:43.277Z,60.30
2022-08-08T15:42:18.199Z,59.70
2022-08-08T15:45:00.767Z,60.00
2022-08-08T15:47:31.224Z,60.00
2022-08-08T15:50:02.294Z,60.50
2022-08-08T15:52:33.060Z,61.10
2022-08-08T15:55:04.461Z,60.70
2022-08-08T15:57:35.667Z,60.90
2022-08-08T16:00:27.117Z,60.90
2022-08-08T16:02:57.884Z,60.80
2022-08-08T16:05:36.014Z,60.80
2022-08-08T16:08:20.202Z,60.90
2022-08-08T16:13:10.646Z,61.00
2022-08-08T16:13:45.146Z,61.30
2022-08-08T16:16:17.626Z,62.00
2022-08-08T16:18:53.494Z,61.40
2022-08-08T16:21:28.973Z,62.80
2022-08-08T16:24:00.567Z,60.90
2022-08-08T16:26:34.549Z,60.80
2022-08-08T16:29:09.299Z,61.40
2022-08-08T16:31:49.159Z,60.90
2022-08-08T16:34:24.711Z,60.40
2022-08-08T16:36:53.737Z,60.80
2022-08-08T16:39:54.934Z,61.40
2022-08-08T16:42:18.147Z,61.70
2022-08-08T16:44:55.209Z,62.50
2022-08-08T16:47:41.355Z,62.70
2022-08-08T16:50:15.314Z,62.90
2022-08-08T16:55:04.277Z,63.40
2022-08-08T16:55:52.336Z,63.80
2022-08-08T16:58:32.685Z,63.40
2022-08-08T17:01:05.486Z,63.70
2022-08-08T17:03:58.898Z,64.00
2022-08-08T17:06:37.628Z,64.00
2022-08-08T17:09:14.698Z,64.20
2022-08-08T17:11:49.162Z,64.60
2022-08-08T17:14:27.269Z,64.80
2022-08-08T17:17:04.493Z,64.90
2022-08-08T17:19:40.813Z,64.50
2022-08-08T17:22:10.617Z,65.40
2022-08-08T17:24:41.202Z,64.90
2022-08-08T17:27:10.438Z,65.50
2022-08-08T17:29:43.777Z,65.60
2022-08-08T17:32:28.975Z,66.40
2022-08-08T17:35:54.439Z,65.40
2022-08-08T17:37:53.364Z,66.20
2022-08-08T17:40:22.917Z,66.80
2022-08-08T17:42:52.045Z,66.90
2022-08-08T17:45:23.979Z,66.30
2022-08-08T17:47:54.923Z,66.40
2022-08-08T17:50:25.296Z,66.40
2022-08-08T17:52:57.577Z,66.50
2022-08-08T17:56:06.789Z,66.50
2022-08-08T17:58:16.196Z,66.80
2022-08-08T18:00:47.498Z,67.40
2022-08-08T18:03:23.170Z,68.10
2022-08-08T18:05:51.781Z,69.10
2022-08-08T18:08:24.705Z,69.40
2022-08-08T18:11:15.030Z,71.10
2022-08-08T18:13:47.153Z,71.70
2022-08-08T18:16:22.863Z,72.20
2022-08-08T18:18:57.400Z,72.80
2022-08-08T18:21:59.146Z,73.70
2022-08-08T18:24:21.095Z,74.30
2022-08-08T18:26:54.671Z,74.80
2022-08-08T18:29:30.005Z,75.50
2022-08-08T18:32:04.200Z,76.00
2022-08-08T18:34:33.932Z,76.20
2022-08-08T18:37:08.493Z,76.90
2022-08-08T18:39:41.004Z,77.00
2022-08-08T18:42:15.871Z,77.60
2022-08-08T18:44:55.784Z,77.90
2022-08-08T18:47:33.407Z,78.20
2022-08-08T18:50:03.075Z,78.80
2022-08-08T18:52:34.924Z,79.10
2022-08-08T18:55:10.777Z,79.50
2022-08-08T18:57:45.466Z,79.70
2022-08-08T19:00:20.184Z,79.70
2022-08-08T19:02:55.176Z,80.00
2022-08-08T19:05:34.560Z,80.20
2022-08-08T19:08:25.450Z,80.50
2022-08-08T19:10:59.105Z,80.90
2022-08-08T19:13:52.861Z,82.90
2022-08-08T19:16:19.070Z,83.70
2022-08-08T19:19:01.956Z,85.10
2022-08-08T19:21:32.975Z,84.60
2022-08-08T19:24:05.521Z,84.40
2022-08-08T19:26:37.434Z,83.70
2022-08-08T19:29:06.866Z,82.80
2022-08-08T19:31:36.211Z,83.00
2022-08-08T19:34:30.063Z,83.40
2022-08-08T19:36:58.930Z,83.50
2022-08-08T19:39:35.480Z,83.50
2022-08-08T19:42:06.905Z,83.40
2022-08-08T19:44:45.843Z,83.70
2022-08-08T19:47:24.579Z,87.50
2022-08-08T19:50:04.361Z,86.20
2022-08-08T19:52:36.826Z,84.90
2022-08-08T19:55:11.481Z,86.00
2022-08-08T19:57:42.351Z,86.50
2022-08-08T20:00:29.172Z,85.40
2022-08-08T20:03:01.323Z,85.00
2022-08-08T20:06:14.475Z,83.70
2022-08-08T20:08:33.868Z,83.40
2022-08-08T20:11:03.398Z,82.80
2022-08-08T20:14:32.311Z,81.40
2022-08-08T20:16:21.651Z,80.50
2022-08-08T20:18:59.126Z,79.90
2022-08-08T20:21:37.067Z,80.00
2022-08-08T20:24:07.931Z,80.00
2022-08-08T20:26:38.186Z,80.90
2022-08-08T20:29:08.679Z,80.50
2022-08-08T20:32:07.389Z,80.30
2022-08-08T20:34:28.987Z,79.50
2022-08-08T20:37:02.501Z,78.90
2022-08-08T20:39:38.935Z,78.80
2022-08-08T20:42:10.347Z,78.40
2022-08-08T20:44:38.936Z,78.60
2022-08-08T20:47:22.807Z,78.40
2022-08-08T20:49:54.589Z,78.00
2022-08-08T20:52:30.553Z,78.20
2022-08-08T20:54:59.493Z,77.90
2022-08-08T20:57:28.856Z,78.50
2022-08-08T20:59:59.080Z,78.70
2022-08-08T21:02:28.205Z,78.50
2022-08-08T21:05:01.150Z,78.00
2022-08-08T21:08:33.338Z,78.10
2022-08-08T21:10:21.664Z,77.80
2022-08-08T21:12:57.073Z,77.20
2022-08-08T21:16:05.483Z,77.30
2022-08-08T21:18:14.829Z,76.80
2022-08-08T21:20:43.504Z,76.10
2022-08-08T21:23:25.121Z,75.60
2022-08-08T21:26:11.171Z,75.30
2022-08-08T21:28:39.980Z,75.60
2022-08-08T21:31:22.854Z,76.30
2022-08-08T21:33:52.399Z,76.90
2022-08-08T21:36:28.930Z,76.80
2022-08-08T21:39:00.378Z,76.90
2022-08-08T21:41:43.291Z,77.70
2022-08-08T21:44:22.570Z,77.80
2022-08-08T21:48:21.280Z,77.20
2022-08-08T21:49:40.723Z,76.60
2022-08-08T21:54:31.357Z,76.60
2022-08-08T21:55:24.042Z,77.00
2022-08-08T21:58:04.081Z,76.90
2022-08-08T22:00:40.540Z,77.20
2022-08-08T22:03:11.208Z,77.40
2022-08-08T22:05:48.384Z,77.80
2022-08-08T22:08:24.006Z,77.80
2022-08-08T22:10:54.966Z,78.20
2022-08-08T22:13:23.724Z,78.50
2022-08-08T22:16:00.024Z,77.80
2022-08-08T22:18:31.193Z,78.00
2022-08-08T22:21:01.671Z,78.70
2022-08-08T22:23:43.433Z,78.90
2022-08-08T22:26:29.796Z,78.30
2022-08-08T22:29:14.680Z,78.20
2022-08-08T22:31:58.474Z,77.50
2022-08-08T22:34:39.905Z,77.50
2022-08-08T22:37:27.646Z,77.50
2022-08-08T22:40:00.992Z,77.60
2022-08-08T22:42:34.446Z,78.10
2022-08-08T22:45:05.337Z,81.60
2022-08-08T22:47:46.880Z,81.20
2022-08-08T22:50:27.435Z,82.30
2022-08-08T22:54:27.722Z,81.20
2022-08-08T22:55:57.824Z,81.50
2022-08-08T22:58:33.905Z,81.40
2022-08-08T23:02:01.070Z,82.20
2022-08-08T23:03:55.086Z,80.30
2022-08-08T23:06:25.573Z,79.80
2022-08-08T23:08:58.252Z,79.70
2022-08-08T23:11:30.983Z,80.60
2022-08-08T23:14:20.993Z,80.60
2022-08-08T23:16:59.104Z,83.80
2022-08-08T23:19:30.706Z,85.10
2022-08-08T23:22:00.827Z,88.70
2022-08-08T23:24:36.859Z,89.60
2022-08-08T23:27:37.910Z,87.10
2022-08-08T23:30:03.141Z,85.40
2022-08-08T23:32:33.205Z,83.20
2022-08-08T23:35:01.982Z,81.50
2022-08-08T23:38:00.879Z,81.20
2022-08-08T23:40:25.768Z,81.30
2022-08-08T23:42:54.323Z,81.00
2022-08-08T23:49:03.021Z,81.20
2022-08-08T23:49:07.123Z,81.40
2022-08-08T23:51:02.872Z,81.10
2022-08-08T23:54:06.137Z,81.20
2022-08-08T23:56:24.123Z,82.90
2022-08-08T23:59:00.873Z,84.20
